sensor_id;sensor_type;location;lat;lon;timestamp;P1;durP1;ratioP1;P2;durP2;ratioP2
63203;SDS011;49297;43.210;27.914;2023-02-11T00:01:10;34.05;;;19.27;;
63203;SDS011;49297;43.210;27.914;2023-02-11T00:03:40;28.35;;;17.20;;
63203;SDS011;49297;43.210;27.914;2023-02-11T00:06:07;48.13;;;19.90;;
63203;SDS011;49297;43.210;27.914;2023-02-11T00:08:36;27.25;;;18.15;;
63203;SDS011;49297;43.210;27.914;2023-02-11T00:11:03;27.65;;;20.63;;
63203;SDS011;49297;43.210;27.914;2023-02-11T00:13:29;28.42;;;21.60;;
63203;SDS011;49297;43.210;27.914;2023-02-11T00:15:55;33.00;;;23.58;;
63203;SDS011;49297;43.210;27.914;2023-02-11T00:18:21;29.52;;;20.60;;
63203;SDS011;49297;43.210;27.914;2023-02-11T00:20:47;29.48;;;19.88;;
63203;SDS011;49297;43.210;27.914;2023-02-11T00:23:13;35.80;;;24.42;;
63203;SDS011;49297;43.210;27.914;2023-02-11T00:25:40;36.08;;;23.83;;
63203;SDS011;49297;43.210;27.914;2023-02-11T00:28:06;25.27;;;18.80;;
63203;SDS011;49297;43.210;27.914;2023-02-11T00:30:33;28.33;;;22.08;;
63203;SDS011;49297;43.210;27.914;2023-02-11T00:32:59;37.83;;;21.77;;
63203;SDS011;49297;43.210;27.914;2023-02-11T00:35:24;34.13;;;23.52;;
63203;SDS011;49297;43.210;27.914;2023-02-11T00:37:52;38.33;;;25.85;;
63203;SDS011;49297;43.210;27.914;2023-02-11T00:40:18;48.78;;;24.55;;
63203;SDS011;49297;43.210;27.914;2023-02-11T00:42:44;29.38;;;21.40;;
63203;SDS011;49297;43.210;27.914;2023-02-11T00:45:10;31.17;;;21.85;;
63203;SDS011;49297;43.210;27.914;2023-02-11T00:47:36;30.45;;;23.52;;
63203;SDS011;49297;43.210;27.914;2023-02-11T00:50:02;27.52;;;21.77;;
63203;SDS011;49297;43.210;27.914;2023-02-11T00:52:30;30.85;;;21.20;;
63203;SDS011;49297;43.210;27.914;2023-02-11T00:54:56;27.50;;;22.75;;
63203;SDS011;49297;43.210;27.914;2023-02-11T00:57:22;30.40;;;21.95;;
63203;SDS011;49297;43.210;27.914;2023-02-11T02:50:03;56.70;;;43.25;;
63203;SDS011;49297;43.210;27.914;2023-02-11T02:52:41;60.05;;;42.08;;
63203;SDS011;49297;43.210;27.914;2023-02-11T02:58:13;47.08;;;37.25;;
63203;SDS011;49297;43.210;27.914;2023-02-11T03:03:56;36.85;;;31.77;;
63203;SDS011;49297;43.210;27.914;2023-02-11T03:09:05;48.08;;;29.90;;
63203;SDS011;49297;43.210;27.914;2023-02-11T03:11:36;34.47;;;28.83;;
63203;SDS011;49297;43.210;27.914;2023-02-11T03:14:02;27.73;;;22.65;;
63203;SDS011;49297;43.210;27.914;2023-02-11T03:16:32;35.10;;;22.70;;
63203;SDS011;49297;43.210;27.914;2023-02-11T03:21:38;28.13;;;20.08;;
63203;SDS011;49297;43.210;27.914;2023-02-11T03:24:07;21.75;;;17.38;;
63203;SDS011;49297;43.210;27.914;2023-02-11T03:26:50;27.70;;;20.02;;
63203;SDS011;49297;43.210;27.914;2023-02-11T03:34:43;28.38;;;20.45;;
63203;SDS011;49297;43.210;27.914;2023-02-11T03:37:15;33.15;;;24.02;;
63203;SDS011;49297;43.210;27.914;2023-02-11T03:39:47;33.88;;;21.85;;
63203;SDS011;49297;43.210;27.914;2023-02-11T03:42:17;26.00;;;22.83;;
63203;SDS011;49297;43.210;27.914;2023-02-11T03:44:45;39.03;;;23.98;;
63203;SDS011;49297;43.210;27.914;2023-02-11T03:47:17;25.55;;;21.45;;
63203;SDS011;49297;43.210;27.914;2023-02-11T03:49:47;28.75;;;21.88;;
63203;SDS011;49297;43.210;27.914;2023-02-11T03:52:16;35.35;;;24.35;;
63203;SDS011;49297;43.210;27.914;2023-02-11T03:54:45;32.88;;;23.40;;
63203;SDS011;49297;43.210;27.914;2023-02-11T03:57:15;34.42;;;21.38;;
63203;SDS011;49297;43.210;27.914;2023-02-11T04:02:24;30.25;;;18.10;;
63203;SDS011;49297;43.210;27.914;2023-02-11T04:04:56;34.08;;;21.42;;
63203;SDS011;49297;43.210;27.914;2023-02-11T04:07:22;33.70;;;22.23;;
63203;SDS011;49297;43.210;27.914;2023-02-11T04:09:49;33.25;;;20.63;;
63203;SDS011;49297;43.210;27.914;2023-02-11T04:12:14;28.42;;;22.15;;
63203;SDS011;49297;43.210;27.914;2023-02-11T04:14:40;37.22;;;21.55;;
63203;SDS011;49297;43.210;27.914;2023-02-11T04:17:06;34.03;;;23.58;;
63203;SDS011;49297;43.210;27.914;2023-02-11T04:19:32;32.13;;;20.88;;
63203;SDS011;49297;43.210;27.914;2023-02-11T04:21:58;36.33;;;22.73;;
63203;SDS011;49297;43.210;27.914;2023-02-11T04:24:24;29.40;;;20.33;;
63203;SDS011;49297;43.210;27.914;2023-02-11T04:26:49;29.50;;;21.02;;
63203;SDS011;49297;43.210;27.914;2023-02-11T04:29:15;30.52;;;23.85;;
63203;SDS011;49297;43.210;27.914;2023-02-11T04:31:41;31.55;;;20.50;;
63203;SDS011;49297;43.210;27.914;2023-02-11T04:34:07;24.67;;;18.50;;
63203;SDS011;49297;43.210;27.914;2023-02-11T04:36:33;30.30;;;19.83;;
63203;SDS011;49297;43.210;27.914;2023-02-11T04:38:58;26.38;;;20.02;;
63203;SDS011;49297;43.210;27.914;2023-02-11T04:41:24;26.85;;;19.42;;
63203;SDS011;49297;43.210;27.914;2023-02-11T04:43:50;22.98;;;17.88;;
63203;SDS011;49297;43.210;27.914;2023-02-11T04:46:16;39.50;;;22.08;;
63203;SDS011;49297;43.210;27.914;2023-02-11T04:48:41;36.55;;;22.25;;
63203;SDS011;49297;43.210;27.914;2023-02-11T04:51:07;37.63;;;20.65;;
63203;SDS011;49297;43.210;27.914;2023-02-11T04:53:33;31.38;;;20.75;;
63203;SDS011;49297;43.210;27.914;2023-02-11T04:55:59;25.58;;;20.08;;
63203;SDS011;49297;43.210;27.914;2023-02-11T04:58:25;27.90;;;20.02;;
63203;SDS011;49297;43.210;27.914;2023-02-11T05:00:50;27.90;;;21.23;;
63203;SDS011;49297;43.210;27.914;2023-02-11T05:03:16;30.20;;;18.90;;
63203;SDS011;49297;43.210;27.914;2023-02-11T05:05:42;23.10;;;19.60;;
63203;SDS011;49297;43.210;27.914;2023-02-11T05:08:09;32.67;;;17.92;;
63203;SDS011;49297;43.210;27.914;2023-02-11T05:10:35;32.22;;;22.02;;
63203;SDS011;49297;43.210;27.914;2023-02-11T05:13:01;31.13;;;21.85;;
63203;SDS011;49297;43.210;27.914;2023-02-11T05:15:28;35.00;;;20.83;;
63203;SDS011;49297;43.210;27.914;2023-02-11T05:17:54;24.20;;;20.65;;
63203;SDS011;49297;43.210;27.914;2023-02-11T05:20:20;34.25;;;21.35;;
63203;SDS011;49297;43.210;27.914;2023-02-11T05:22:46;27.17;;;19.58;;
63203;SDS011;49297;43.210;27.914;2023-02-11T05:25:12;30.00;;;20.80;;
63203;SDS011;49297;43.210;27.914;2023-02-11T05:27:38;31.02;;;21.85;;
63203;SDS011;49297;43.210;27.914;2023-02-11T05:30:04;23.73;;;19.10;;
63203;SDS011;49297;43.210;27.914;2023-02-11T05:32:31;23.60;;;20.75;;
63203;SDS011;49297;43.210;27.914;2023-02-11T05:34:56;38.88;;;21.58;;
63203;SDS011;49297;43.210;27.914;2023-02-11T05:37:22;28.63;;;21.45;;
63203;SDS011;49297;43.210;27.914;2023-02-11T05:39:48;31.60;;;21.38;;
63203;SDS011;49297;43.210;27.914;2023-02-11T05:42:14;37.88;;;24.30;;
63203;SDS011;49297;43.210;27.914;2023-02-11T05:44:40;39.28;;;24.65;;
63203;SDS011;49297;43.210;27.914;2023-02-11T05:47:06;35.47;;;24.17;;
63203;SDS011;49297;43.210;27.914;2023-02-11T05:49:33;32.65;;;23.80;;
63203;SDS011;49297;43.210;27.914;2023-02-11T05:51:59;37.20;;;24.23;;
63203;SDS011;49297;43.210;27.914;2023-02-11T05:54:25;32.83;;;23.85;;
63203;SDS011;49297;43.210;27.914;2023-02-11T05:56:51;27.20;;;21.02;;
63203;SDS011;49297;43.210;27.914;2023-02-11T05:59:17;25.42;;;21.85;;
63203;SDS011;49297;43.210;27.914;2023-02-11T06:01:42;29.38;;;22.52;;
63203;SDS011;49297;43.210;27.914;2023-02-11T06:04:08;25.58;;;19.90;;
63203;SDS011;49297;43.210;27.914;2023-02-11T06:06:34;26.83;;;21.77;;
63203;SDS011;49297;43.210;27.914;2023-02-11T06:09:00;28.08;;;22.45;;
63203;SDS011;49297;43.210;27.914;2023-02-11T06:11:26;26.98;;;22.05;;
63203;SDS011;49297;43.210;27.914;2023-02-11T06:13:51;28.45;;;18.58;;
63203;SDS011;49297;43.210;27.914;2023-02-11T06:16:17;28.20;;;20.23;;
63203;SDS011;49297;43.210;27.914;2023-02-11T06:18:43;23.80;;;18.60;;
63203;SDS011;49297;43.210;27.914;2023-02-11T06:21:09;22.25;;;17.95;;
63203;SDS011;49297;43.210;27.914;2023-02-11T06:23:35;25.10;;;17.30;;
63203;SDS011;49297;43.210;27.914;2023-02-11T06:26:05;23.25;;;19.45;;
63203;SDS011;49297;43.210;27.914;2023-02-11T06:28:35;34.92;;;21.67;;
63203;SDS011;49297;43.210;27.914;2023-02-11T06:31:05;32.65;;;19.15;;
63203;SDS011;49297;43.210;27.914;2023-02-11T06:33:31;29.85;;;23.42;;
63203;SDS011;49297;43.210;27.914;2023-02-11T06:35:58;25.77;;;20.35;;
63203;SDS011;49297;43.210;27.914;2023-02-11T06:38:24;31.45;;;23.25;;
63203;SDS011;49297;43.210;27.914;2023-02-11T06:40:50;23.05;;;19.65;;
63203;SDS011;49297;43.210;27.914;2023-02-11T06:43:16;26.08;;;20.48;;
63203;SDS011;49297;43.210;27.914;2023-02-11T06:45:42;30.02;;;22.52;;
63203;SDS011;49297;43.210;27.914;2023-02-11T06:48:07;27.17;;;22.30;;
63203;SDS011;49297;43.210;27.914;2023-02-11T06:50:33;27.77;;;22.60;;
63203;SDS011;49297;43.210;27.914;2023-02-11T06:52:59;30.75;;;26.35;;
63203;SDS011;49297;43.210;27.914;2023-02-11T06:55:25;38.20;;;27.88;;
63203;SDS011;49297;43.210;27.914;2023-02-11T06:57:51;54.10;;;34.40;;
63203;SDS011;49297;43.210;27.914;2023-02-11T07:00:23;33.38;;;29.25;;
63203;SDS011;49297;43.210;27.914;2023-02-11T07:02:50;40.22;;;26.55;;
63203;SDS011;49297;43.210;27.914;2023-02-11T07:05:16;33.95;;;25.98;;
63203;SDS011;49297;43.210;27.914;2023-02-11T07:07:42;33.00;;;25.35;;
63203;SDS011;49297;43.210;27.914;2023-02-11T07:10:08;37.10;;;27.38;;
63203;SDS011;49297;43.210;27.914;2023-02-11T07:12:34;32.50;;;27.85;;
63203;SDS011;49297;43.210;27.914;2023-02-11T07:14:59;35.40;;;27.35;;
63203;SDS011;49297;43.210;27.914;2023-02-11T07:17:25;38.50;;;27.48;;
63203;SDS011;49297;43.210;27.914;2023-02-11T07:19:51;38.30;;;28.48;;
63203;SDS011;49297;43.210;27.914;2023-02-11T07:22:17;36.10;;;28.00;;
63203;SDS011;49297;43.210;27.914;2023-02-11T07:24:44;43.38;;;31.35;;
63203;SDS011;49297;43.210;27.914;2023-02-11T07:27:10;42.20;;;31.85;;
63203;SDS011;49297;43.210;27.914;2023-02-11T07:29:36;42.05;;;34.22;;
63203;SDS011;49297;43.210;27.914;2023-02-11T07:32:02;31.63;;;27.52;;
63203;SDS011;49297;43.210;27.914;2023-02-11T07:34:28;37.10;;;27.33;;
63203;SDS011;49297;43.210;27.914;2023-02-11T07:36:53;38.40;;;28.48;;
63203;SDS011;49297;43.210;27.914;2023-02-11T07:39:19;33.95;;;27.83;;
63203;SDS011;49297;43.210;27.914;2023-02-11T07:41:46;31.13;;;24.60;;
63203;SDS011;49297;43.210;27.914;2023-02-11T07:44:13;34.17;;;22.50;;
63203;SDS011;49297;43.210;27.914;2023-02-11T07:46:39;29.15;;;19.85;;
63203;SDS011;49297;43.210;27.914;2023-02-11T07:49:09;34.35;;;21.85;;
63203;SDS011;49297;43.210;27.914;2023-02-11T07:51:36;25.83;;;20.35;;
63203;SDS011;49297;43.210;27.914;2023-02-11T07:54:02;25.52;;;19.38;;
63203;SDS011;49297;43.210;27.914;2023-02-11T07:56:28;26.00;;;18.63;;
63203;SDS011;49297;43.210;27.914;2023-02-11T07:58:54;28.58;;;21.45;;
63203;SDS011;49297;43.210;27.914;2023-02-11T08:01:30;24.45;;;20.98;;
63203;SDS011;49297;43.210;27.914;2023-02-11T08:03:57;26.35;;;19.23;;
63203;SDS011;49297;43.210;27.914;2023-02-11T08:06:25;34.42;;;20.40;;
63203;SDS011;49297;43.210;27.914;2023-02-11T08:08:52;28.08;;;21.25;;
63203;SDS011;49297;43.210;27.914;2023-02-11T08:11:23;26.50;;;20.80;;
63203;SDS011;49297;43.210;27.914;2023-02-11T08:13:51;24.63;;;16.92;;
63203;SDS011;49297;43.210;27.914;2023-02-11T08:16:19;31.52;;;19.75;;
63203;SDS011;49297;43.210;27.914;2023-02-11T08:18:47;22.67;;;17.48;;
63203;SDS011;49297;43.210;27.914;2023-02-11T08:21:14;26.95;;;19.30;;
63203;SDS011;49297;43.210;27.914;2023-02-11T08:23:41;27.80;;;17.98;;
63203;SDS011;49297;43.210;27.914;2023-02-11T08:26:09;25.08;;;17.38;;
63203;SDS011;49297;43.210;27.914;2023-02-11T08:28:39;24.98;;;19.65;;
63203;SDS011;49297;43.210;27.914;2023-02-11T08:31:08;21.35;;;16.33;;
63203;SDS011;49297;43.210;27.914;2023-02-11T08:33:36;19.50;;;17.50;;
63203;SDS011;49297;43.210;27.914;2023-02-11T08:38:56;26.13;;;20.88;;
63203;SDS011;49297;43.210;27.914;2023-02-11T08:43:56;18.25;;;14.73;;
63203;SDS011;49297;43.210;27.914;2023-02-11T08:46:22;16.70;;;14.75;;
63203;SDS011;49297;43.210;27.914;2023-02-11T08:48:48;23.35;;;16.55;;
63203;SDS011;49297;43.210;27.914;2023-02-11T08:53:53;20.00;;;15.77;;
63203;SDS011;49297;43.210;27.914;2023-02-11T08:56:20;23.80;;;16.08;;
63203;SDS011;49297;43.210;27.914;2023-02-11T08:58:48;17.58;;;14.48;;
63203;SDS011;49297;43.210;27.914;2023-02-11T09:01:16;17.15;;;15.40;;
63203;SDS011;49297;43.210;27.914;2023-02-11T09:03:47;37.05;;;16.00;;
63203;SDS011;49297;43.210;27.914;2023-02-11T09:06:15;16.88;;;14.13;;
63203;SDS011;49297;43.210;27.914;2023-02-11T09:08:43;16.30;;;13.07;;
63203;SDS011;49297;43.210;27.914;2023-02-11T09:11:11;23.60;;;14.68;;
63203;SDS011;49297;43.210;27.914;2023-02-11T09:13:39;20.63;;;13.73;;
63203;SDS011;49297;43.210;27.914;2023-02-11T09:16:05;27.75;;;13.27;;
63203;SDS011;49297;43.210;27.914;2023-02-11T09:18:31;18.27;;;12.85;;
63203;SDS011;49297;43.210;27.914;2023-02-11T09:21:02;16.30;;;13.48;;
63203;SDS011;49297;43.210;27.914;2023-02-11T09:23:29;17.50;;;14.23;;
63203;SDS011;49297;43.210;27.914;2023-02-11T09:25:55;16.30;;;14.55;;
63203;SDS011;49297;43.210;27.914;2023-02-11T09:28:21;18.80;;;15.05;;
63203;SDS011;49297;43.210;27.914;2023-02-11T09:30:46;17.35;;;13.93;;
63203;SDS011;49297;43.210;27.914;2023-02-11T09:33:12;17.70;;;14.43;;
63203;SDS011;49297;43.210;27.914;2023-02-11T09:35:38;20.42;;;16.05;;
63203;SDS011;49297;43.210;27.914;2023-02-11T09:38:04;26.50;;;15.20;;
63203;SDS011;49297;43.210;27.914;2023-02-11T09:40:30;27.77;;;15.60;;
63203;SDS011;49297;43.210;27.914;2023-02-11T09:42:56;15.18;;;13.75;;
63203;SDS011;49297;43.210;27.914;2023-02-11T09:45:26;24.20;;;15.18;;
63203;SDS011;49297;43.210;27.914;2023-02-11T09:48:04;18.75;;;14.77;;
63203;SDS011;49297;43.210;27.914;2023-02-11T09:50:38;23.25;;;20.02;;
63203;SDS011;49297;43.210;27.914;2023-02-11T09:55:40;22.50;;;18.63;;
63203;SDS011;49297;43.210;27.914;2023-02-11T09:58:27;15.82;;;14.32;;
63203;SDS011;49297;43.210;27.914;2023-02-11T10:07:05;16.58;;;13.15;;
63203;SDS011;49297;43.210;27.914;2023-02-11T10:20:47;17.80;;;13.43;;
63203;SDS011;49297;43.210;27.914;2023-02-11T10:23:26;19.60;;;17.50;;
63203;SDS011;49297;43.210;27.914;2023-02-11T10:25:56;14.15;;;12.77;;
63203;SDS011;49297;43.210;27.914;2023-02-11T10:28:26;18.40;;;13.35;;
63203;SDS011;49297;43.210;27.914;2023-02-11T10:31:07;24.25;;;15.45;;
63203;SDS011;49297;43.210;27.914;2023-02-11T10:33:44;21.40;;;16.40;;
63203;SDS011;49297;43.210;27.914;2023-02-11T10:38:41;16.98;;;14.80;;
63203;SDS011;49297;43.210;27.914;2023-02-11T10:41:09;18.10;;;13.63;;
63203;SDS011;49297;43.210;27.914;2023-02-11T10:43:49;17.83;;;15.48;;
63203;SDS011;49297;43.210;27.914;2023-02-11T10:46:21;20.33;;;18.15;;
63203;SDS011;49297;43.210;27.914;2023-02-11T10:48:53;25.13;;;22.55;;
63203;SDS011;49297;43.210;27.914;2023-02-11T10:51:30;23.15;;;15.48;;
63203;SDS011;49297;43.210;27.914;2023-02-11T10:56:49;15.00;;;12.15;;
63203;SDS011;49297;43.210;27.914;2023-02-11T10:59:32;17.63;;;13.73;;
63203;SDS011;49297;43.210;27.914;2023-02-11T11:02:29;13.93;;;12.57;;
63203;SDS011;49297;43.210;27.914;2023-02-11T11:05:06;24.60;;;11.77;;
63203;SDS011;49297;43.210;27.914;2023-02-11T11:07:50;16.40;;;12.57;;
63203;SDS011;49297;43.210;27.914;2023-02-11T11:10:36;15.57;;;12.57;;
63203;SDS011;49297;43.210;27.914;2023-02-11T11:18:41;16.48;;;12.85;;
63203;SDS011;49297;43.210;27.914;2023-02-11T11:26:53;17.08;;;12.20;;
63203;SDS011;49297;43.210;27.914;2023-02-11T11:32:21;15.38;;;13.70;;
63203;SDS011;49297;43.210;27.914;2023-02-11T11:34:50;14.30;;;12.52;;
63203;SDS011;49297;43.210;27.914;2023-02-11T11:37:26;18.92;;;15.02;;
63203;SDS011;49297;43.210;27.914;2023-02-11T11:39:56;15.23;;;13.73;;
63203;SDS011;49297;43.210;27.914;2023-02-11T11:42:45;18.88;;;17.00;;
63203;SDS011;49297;43.210;27.914;2023-02-11T11:45:26;19.38;;;13.82;;
63203;SDS011;49297;43.210;27.914;2023-02-11T11:58:39;16.20;;;14.32;;
63203;SDS011;49297;43.210;27.914;2023-02-11T12:06:20;23.27;;;19.15;;
63203;SDS011;49297;43.210;27.914;2023-02-11T12:23:19;12.80;;;11.45;;
63203;SDS011;49297;43.210;27.914;2023-02-11T12:46:42;25.52;;;16.15;;
63203;SDS011;49297;43.210;27.914;2023-02-11T12:49:35;17.83;;;13.65;;
63203;SDS011;49297;43.210;27.914;2023-02-11T12:54:58;16.20;;;14.45;;
63203;SDS011;49297;43.210;27.914;2023-02-11T12:57:31;18.13;;;16.35;;
63203;SDS011;49297;43.210;27.914;2023-02-11T13:00:06;16.98;;;15.27;;
63203;SDS011;49297;43.210;27.914;2023-02-11T13:02:40;16.90;;;14.07;;
63203;SDS011;49297;43.210;27.914;2023-02-11T13:08:04;21.17;;;16.23;;
63203;SDS011;49297;43.210;27.914;2023-02-11T13:10:40;18.65;;;16.90;;
63203;SDS011;49297;43.210;27.914;2023-02-11T13:13:27;17.63;;;15.80;;
63203;SDS011;49297;43.210;27.914;2023-02-11T13:21:53;16.40;;;13.73;;
63203;SDS011;49297;43.210;27.914;2023-02-11T13:27:07;16.10;;;14.50;;
63203;SDS011;49297;43.210;27.914;2023-02-11T13:29:57;15.43;;;13.82;;
63203;SDS011;49297;43.210;27.914;2023-02-11T13:35:28;17.33;;;13.90;;
63203;SDS011;49297;43.210;27.914;2023-02-11T13:37:54;16.92;;;14.70;;
63203;SDS011;49297;43.210;27.914;2023-02-11T13:40:34;14.88;;;12.52;;
63203;SDS011;49297;43.210;27.914;2023-02-11T13:43:03;14.05;;;12.57;;
63203;SDS011;49297;43.210;27.914;2023-02-11T13:45:35;13.45;;;11.07;;
63203;SDS011;49297;43.210;27.914;2023-02-11T13:48:04;12.68;;;10.27;;
63203;SDS011;49297;43.210;27.914;2023-02-11T13:50:35;12.85;;;9.93;;
63203;SDS011;49297;43.210;27.914;2023-02-11T13:53:04;15.07;;;10.52;;
63203;SDS011;49297;43.210;27.914;2023-02-11T13:55:33;12.00;;;9.55;;
63203;SDS011;49297;43.210;27.914;2023-02-11T13:58:16;11.20;;;10.00;;
63203;SDS011;49297;43.210;27.914;2023-02-11T14:00:48;10.32;;;9.07;;
63203;SDS011;49297;43.210;27.914;2023-02-11T14:03:28;10.18;;;8.32;;
63203;SDS011;49297;43.210;27.914;2023-02-11T14:06:16;10.65;;;6.82;;
63203;SDS011;49297;43.210;27.914;2023-02-11T14:11:46;21.13;;;9.07;;
63203;SDS011;49297;43.210;27.914;2023-02-11T14:19:32;10.02;;;8.82;;
63203;SDS011;49297;43.210;27.914;2023-02-11T14:30:12;12.55;;;8.40;;
63203;SDS011;49297;43.210;27.914;2023-02-11T14:33:21;12.02;;;7.07;;
63203;SDS011;49297;43.210;27.914;2023-02-11T14:36:04;13.00;;;10.50;;
63203;SDS011;49297;43.210;27.914;2023-02-11T14:38:39;15.93;;;11.43;;
63203;SDS011;49297;43.210;27.914;2023-02-11T14:43:50;16.23;;;12.15;;
63203;SDS011;49297;43.210;27.914;2023-02-11T14:46:20;14.05;;;12.20;;
63203;SDS011;49297;43.210;27.914;2023-02-11T14:48:48;12.40;;;10.18;;
63203;SDS011;49297;43.210;27.914;2023-02-11T14:51:18;14.38;;;11.80;;
63203;SDS011;49297;43.210;27.914;2023-02-11T14:54:02;12.95;;;11.52;;
63203;SDS011;49297;43.210;27.914;2023-02-11T14:56:39;11.80;;;10.60;;
63203;SDS011;49297;43.210;27.914;2023-02-11T14:59:20;16.73;;;14.32;;
63203;SDS011;49297;43.210;27.914;2023-02-11T15:01:50;12.80;;;11.50;;
63203;SDS011;49297;43.210;27.914;2023-02-11T15:04:31;17.52;;;12.40;;
63203;SDS011;49297;43.210;27.914;2023-02-11T15:07:02;15.43;;;13.05;;
63203;SDS011;49297;43.210;27.914;2023-02-11T15:09:33;16.25;;;14.63;;
63203;SDS011;49297;43.210;27.914;2023-02-11T15:12:09;18.05;;;15.75;;
63203;SDS011;49297;43.210;27.914;2023-02-11T15:14:47;20.27;;;14.85;;
63203;SDS011;49297;43.210;27.914;2023-02-11T15:17:16;28.27;;;14.82;;
63203;SDS011;49297;43.210;27.914;2023-02-11T15:19:47;18.33;;;14.27;;
63203;SDS011;49297;43.210;27.914;2023-02-11T15:22:24;27.08;;;15.63;;
63203;SDS011;49297;43.210;27.914;2023-02-11T15:25:00;18.13;;;15.35;;
63203;SDS011;49297;43.210;27.914;2023-02-11T15:32:47;27.05;;;20.27;;
63203;SDS011;49297;43.210;27.914;2023-02-11T15:35:31;28.08;;;22.70;;
63203;SDS011;49297;43.210;27.914;2023-02-11T15:38:03;29.27;;;24.27;;
63203;SDS011;49297;43.210;27.914;2023-02-11T15:40:30;28.60;;;15.60;;
63203;SDS011;49297;43.210;27.914;2023-02-11T15:43:04;30.35;;;23.05;;
63203;SDS011;49297;43.210;27.914;2023-02-11T15:50:38;23.00;;;17.73;;
63203;SDS011;49297;43.210;27.914;2023-02-11T15:53:52;25.55;;;19.25;;
63203;SDS011;49297;43.210;27.914;2023-02-11T15:56:01;29.13;;;17.42;;
63203;SDS011;49297;43.210;27.914;2023-02-11T15:58:44;30.58;;;17.88;;
63203;SDS011;49297;43.210;27.914;2023-02-11T16:01:15;22.38;;;17.40;;
63203;SDS011;49297;43.210;27.914;2023-02-11T16:03:41;24.45;;;18.45;;
63203;SDS011;49297;43.210;27.914;2023-02-11T16:06:17;19.70;;;14.40;;
63203;SDS011;49297;43.210;27.914;2023-02-11T16:08:55;25.52;;;13.35;;
63203;SDS011;49297;43.210;27.914;2023-02-11T16:14:18;21.13;;;13.52;;
63203;SDS011;49297;43.210;27.914;2023-02-11T16:16:52;23.95;;;19.42;;
63203;SDS011;49297;43.210;27.914;2023-02-11T16:19:24;29.92;;;20.27;;
63203;SDS011;49297;43.210;27.914;2023-02-11T16:21:55;36.72;;;23.48;;
63203;SDS011;49297;43.210;27.914;2023-02-11T16:24:32;30.75;;;24.95;;
63203;SDS011;49297;43.210;27.914;2023-02-11T16:27:00;28.85;;;24.60;;
63203;SDS011;49297;43.210;27.914;2023-02-11T16:29:32;44.70;;;30.63;;
63203;SDS011;49297;43.210;27.914;2023-02-11T16:32:14;37.10;;;27.33;;
63203;SDS011;49297;43.210;27.914;2023-02-11T16:34:43;34.03;;;26.33;;
63203;SDS011;49297;43.210;27.914;2023-02-11T16:37:09;28.20;;;22.27;;
63203;SDS011;49297;43.210;27.914;2023-02-11T16:39:35;40.58;;;28.58;;
63203;SDS011;49297;43.210;27.914;2023-02-11T16:42:01;32.97;;;25.40;;
63203;SDS011;49297;43.210;27.914;2023-02-11T16:44:28;31.90;;;27.83;;
63203;SDS011;49297;43.210;27.914;2023-02-11T16:46:54;27.98;;;24.30;;
63203;SDS011;49297;43.210;27.914;2023-02-11T16:49:26;34.22;;;24.23;;
63203;SDS011;49297;43.210;27.914;2023-02-11T16:51:57;27.95;;;25.00;;
63203;SDS011;49297;43.210;27.914;2023-02-11T16:54:26;35.97;;;31.05;;
63203;SDS011;49297;43.210;27.914;2023-02-11T16:56:53;35.80;;;29.15;;
63203;SDS011;49297;43.210;27.914;2023-02-11T16:59:19;39.42;;;26.73;;
63203;SDS011;49297;43.210;27.914;2023-02-11T17:01:45;53.28;;;23.95;;
63203;SDS011;49297;43.210;27.914;2023-02-11T17:04:17;32.33;;;26.08;;
63203;SDS011;49297;43.210;27.914;2023-02-11T17:06:43;25.90;;;22.85;;
63203;SDS011;49297;43.210;27.914;2023-02-11T17:09:13;28.60;;;22.65;;
63203;SDS011;49297;43.210;27.914;2023-02-11T17:11:45;37.38;;;26.52;;
63203;SDS011;49297;43.210;27.914;2023-02-11T17:14:11;27.70;;;24.17;;
63203;SDS011;49297;43.210;27.914;2023-02-11T17:16:36;40.50;;;27.90;;
63203;SDS011;49297;43.210;27.914;2023-02-11T17:19:02;39.10;;;29.13;;
63203;SDS011;49297;43.210;27.914;2023-02-11T17:21:28;36.78;;;30.48;;
63203;SDS011;49297;43.210;27.914;2023-02-11T17:23:56;43.13;;;31.85;;
63203;SDS011;49297;43.210;27.914;2023-02-11T17:26:23;55.03;;;40.90;;
63203;SDS011;49297;43.210;27.914;2023-02-11T17:28:49;47.22;;;39.63;;
63203;SDS011;49297;43.210;27.914;2023-02-11T17:31:15;44.75;;;37.75;;
63203;SDS011;49297;43.210;27.914;2023-02-11T17:33:41;48.30;;;36.72;;
63203;SDS011;49297;43.210;27.914;2023-02-11T17:36:07;47.28;;;38.53;;
63203;SDS011;49297;43.210;27.914;2023-02-11T17:38:34;44.95;;;40.20;;
63203;SDS011;49297;43.210;27.914;2023-02-11T17:41:01;50.92;;;41.47;;
63203;SDS011;49297;43.210;27.914;2023-02-11T17:43:29;41.58;;;36.10;;
63203;SDS011;49297;43.210;27.914;2023-02-11T17:45:56;40.67;;;35.47;;
63203;SDS011;49297;43.210;27.914;2023-02-11T17:48:22;42.67;;;32.53;;
63203;SDS011;49297;43.210;27.914;2023-02-11T17:50:49;33.63;;;29.27;;
63203;SDS011;49297;43.210;27.914;2023-02-11T17:53:14;35.85;;;25.75;;
63203;SDS011;49297;43.210;27.914;2023-02-11T17:55:40;33.92;;;25.05;;
63203;SDS011;49297;43.210;27.914;2023-02-11T17:58:06;31.70;;;22.92;;
63203;SDS011;49297;43.210;27.914;2023-02-11T18:00:32;35.28;;;26.20;;
63203;SDS011;49297;43.210;27.914;2023-02-11T18:02:58;31.25;;;25.50;;
63203;SDS011;49297;43.210;27.914;2023-02-11T18:05:32;32.63;;;25.45;;
63203;SDS011;49297;43.210;27.914;2023-02-11T18:07:59;36.42;;;28.35;;
63203;SDS011;49297;43.210;27.914;2023-02-11T18:10:25;30.98;;;23.40;;
63203;SDS011;49297;43.210;27.914;2023-02-11T18:12:50;32.20;;;26.38;;
63203;SDS011;49297;43.210;27.914;2023-02-11T18:15:16;31.50;;;22.02;;
63203;SDS011;49297;43.210;27.914;2023-02-11T18:17:42;39.83;;;22.98;;
63203;SDS011;49297;43.210;27.914;2023-02-11T18:20:08;30.02;;;23.95;;
63203;SDS011;49297;43.210;27.914;2023-02-11T18:22:34;32.30;;;27.70;;
63203;SDS011;49297;43.210;27.914;2023-02-11T18:25:04;41.85;;;33.08;;
63203;SDS011;49297;43.210;27.914;2023-02-11T18:27:35;48.78;;;31.63;;
63203;SDS011;49297;43.210;27.914;2023-02-11T18:30:01;38.90;;;31.75;;
63203;SDS011;49297;43.210;27.914;2023-02-11T18:32:27;33.67;;;29.02;;
63203;SDS011;49297;43.210;27.914;2023-02-11T18:34:53;31.77;;;27.42;;
63203;SDS011;49297;43.210;27.914;2023-02-11T18:37:19;37.92;;;31.92;;
63203;SDS011;49297;43.210;27.914;2023-02-11T18:39:44;35.75;;;29.60;;
63203;SDS011;49297;43.210;27.914;2023-02-11T18:42:10;40.30;;;29.02;;
63203;SDS011;49297;43.210;27.914;2023-02-11T18:44:36;33.35;;;27.40;;
63203;SDS011;49297;43.210;27.914;2023-02-11T18:47:02;33.10;;;24.38;;
63203;SDS011;49297;43.210;27.914;2023-02-11T18:49:28;33.30;;;29.83;;
63203;SDS011;49297;43.210;27.914;2023-02-11T18:51:54;35.53;;;28.67;;
63203;SDS011;49297;43.210;27.914;2023-02-11T18:54:19;35.08;;;31.38;;
63203;SDS011;49297;43.210;27.914;2023-02-11T18:56:45;46.70;;;35.08;;
63203;SDS011;49297;43.210;27.914;2023-02-11T18:59:11;32.40;;;28.77;;